Time;durP1;ratioP1;P1;durP2;ratioP2;P2;SDS_P1;SDS_P2;PMS_P1;PMS_P2;Temp;Humidity;BMP_temperature;BMP_pressure;BME280_temperature;BME280_humidity;BME280_pressure;Samples;Min_cycle;Max_cycle;Signal;HPM_P1;HPM_P2
2022/05/15 00:03:42;;;;;;;7.55;3.67;;;17.50;39.50;;;15.40;43.05;101732.94;12249683;19;20384;-82
2022/05/15 00:07:44;;;;;;;6.95;3.47;;;17.40;39.50;;;15.42;43.20;101752.13;12251370;19;20365;-82
2022/05/15 00:11:46;;;;;;;3.72;3.17;;;17.30;39.50;;;15.31;43.13;101736.13;12251578;19;20535;-82
2022/05/15 00:15:49;;;;;;;3.90;3.17;;;17.40;39.60;;;15.13;43.24;101726.66;12251445;19;20010;-82
2022/05/15 00:19:50;;;;;;;5.13;3.10;;;17.20;39.60;;;15.12;43.24;101736.34;12252714;19;20021;-82
2022/05/15 00:23:52;;;;;;;3.90;2.90;;;17.20;39.60;;;14.96;43.37;101741.66;12250008;19;20011;-82
2022/05/15 00:27:55;;;;;;;3.25;2.95;;;17.10;39.70;;;14.96;43.47;101754.78;12250622;19;20352;-82
2022/05/15 00:31:57;;;;;;;3.33;3.03;;;17.10;39.80;;;14.84;43.59;101752.84;12248949;19;20026;-82
2022/05/15 00:35:58;;;;;;;4.45;3.13;;;17.00;39.80;;;14.68;43.59;101728.34;12250287;19;20368;-82
2022/05/15 00:40:00;;;;;;;4.30;3.30;;;16.90;39.90;;;14.52;43.59;101718.69;12251771;19;20119;-82
2022/05/15 00:44:02;;;;;;;5.40;4.35;;;16.90;39.90;;;14.71;43.66;101734.28;12247887;19;20014;-82
2022/05/15 00:48:04;;;;;;;5.00;3.08;;;16.80;40.00;;;14.58;43.74;101731.50;12251659;19;20022;-82
2022/05/15 00:52:12;;;;;;;5.60;2.90;;;16.80;40.00;;;14.50;43.96;101738.06;12248823;19;20356;-82
2022/05/15 00:56:18;;;;;;;6.10;2.97;;;16.70;40.20;;;14.56;43.96;101751.78;12250896;19;20010;-82
2022/05/15 01:00:30;;;;;;;5.43;2.55;;;16.70;40.10;;;14.45;44.00;101735.72;12242652;19;20492;-82
2022/05/15 01:04:32;;;;;;;4.70;2.67;;;16.60;40.20;;;14.42;43.74;101733.28;12243257;19;20362;-82
2022/05/15 01:08:33;;;;;;;3.75;2.50;;;16.40;40.10;;;14.37;43.87;101730.03;12241357;19;20015;-82
2022/05/15 01:12:40;;;;;;;4.22;3.22;;;16.30;40.10;;;14.10;43.97;101693.84;12245761;19;20014;-82
2022/05/15 01:16:42;;;;;;;3.53;2.78;;;16.40;40.20;;;14.34;43.89;101743.34;12248340;19;20027;-82
2022/05/15 01:20:44;;;;;;;3.20;2.60;;;16.30;40.20;;;14.34;44.11;101765.22;12247452;19;20010;-82
2022/05/15 01:24:47;;;;;;;3.13;2.10;;;16.20;40.20;;;14.22;44.07;101750.09;12245267;19;20460;-82
2022/05/15 01:28:50;;;;;;;2.42;2.22;;;16.30;40.30;;;14.08;44.23;101721.13;12246402;19;20421;-82
2022/05/15 01:32:52;;;;;;;3.90;2.17;;;16.50;40.40;;;14.04;44.23;101724.81;12247314;19;20358;-82
2022/05/15 01:36:57;;;;;;;3.00;2.28;;;16.20;40.30;;;14.06;44.25;101741.34;12246339;19;20025;-82
2022/05/15 01:40:59;;;;;;;5.15;3.30;;;16.20;40.30;;;13.98;44.19;101746.16;12244284;19;20014;-81
2022/05/15 01:45:06;;;;;;;4.25;2.30;;;16.20;40.40;;;13.79;44.33;101723.50;12240719;19;20022;-82
2022/05/15 01:49:07;;;;;;;4.80;2.57;;;16.10;40.40;;;13.57;44.27;101705.41;12246722;19;20654;-82
2022/05/15 01:53:11;;;;;;;3.95;2.70;;;16.00;40.30;;;13.86;44.37;101758.19;12245450;19;20294;-82
2022/05/15 01:57:13;;;;;;;2.95;2.28;;;16.00;40.40;;;13.70;44.38;101745.84;12245583;19;20372;-82
2022/05/15 02:01:15;;;;;;;3.22;2.28;;;16.00;40.50;;;13.65;44.40;101744.38;12247336;19;20029;-81
2022/05/15 02:05:20;;;;;;;2.47;2.20;;;15.90;40.50;;;13.43;44.69;101729.75;12239075;19;20029;-82
2022/05/15 02:09:22;;;;;;;3.55;2.28;;;15.80;40.60;;;13.39;44.60;101733.44;12245571;19;20035;-82
2022/05/15 02:13:25;;;;;;;3.53;2.13;;;15.80;40.60;;;13.40;44.73;101756.13;12244194;19;20457;-82
2022/05/15 02:17:26;;;;;;;4.90;2.30;;;15.50;40.50;;;13.23;44.79;101743.84;12244187;19;20019;-82
2022/05/15 02:21:28;;;;;;;3.88;2.05;;;15.60;40.70;;;13.22;44.84;101747.38;12243729;19;20014;-81
2022/05/15 02:25:31;;;;;;;4.32;2.35;;;15.30;40.60;;;12.87;45.01;101682.72;12239443;19;20025;-82
2022/05/15 02:29:33;;;;;;;3.92;2.00;;;15.50;40.80;;;13.03;44.91;101729.09;12245584;19;20490;-81
2022/05/15 02:33:35;;;;;;;3.55;1.80;;;15.30;40.90;;;13.22;45.03;101773.59;12242640;19;20015;-82
2022/05/15 02:37:39;;;;;;;3.15;2.10;;;15.10;40.70;;;13.00;45.10;101744.97;12242719;19;20034;-82
2022/05/15 02:41:40;;;;;;;3.17;1.90;;;15.30;41.00;;;12.97;45.17;101749.53;12243952;19;20115;-82
2022/05/15 02:45:42;;;;;;;2.53;1.98;;;15.10;41.00;;;12.71;45.24;101711.44;12241789;19;20463;-82
2022/05/15 02:54:03;;;;;;;2.47;1.70;;;15.20;41.10;;;12.93;45.19;101748.81;12241214;19;20022;-82
2022/05/15 02:58:05;;;;;;;4.82;1.80;;;15.10;41.10;;;12.62;45.39;101702.28;12243238;19;20406;-82
2022/05/15 03:02:08;;;;;;;5.85;2.67;;;15.10;41.10;;;12.69;45.28;101715.91;12241602;19;20022;-81
2022/05/15 03:06:10;;;;;;;3.55;2.38;;;15.00;41.20;;;12.97;45.26;101763.47;12239763;19;20044;-82
2022/05/15 03:10:15;;;;;;;4.13;2.08;;;15.10;41.20;;;12.84;45.39;101750.09;12240899;19;20055;-81
2022/05/15 03:14:17;;;;;;;4.72;2.42;;;15.00;41.20;;;12.89;45.35;101775.25;12241725;19;20011;-82
2022/05/15 03:18:19;;;;;;;5.00;2.28;;;15.00;41.20;;;12.77;45.55;101760.94;12239375;19;20022;-81
2022/05/15 03:22:21;;;;;;;3.15;2.60;;;15.00;41.20;;;12.71;45.55;101772.56;12239468;19;20086;-82
2022/05/15 03:26:24;;;;;;;3.75;2.55;;;14.90;41.20;;;12.67;45.63;101781.53;12237987;19;20039;-81
2022/05/15 03:30:25;;;;;;;3.55;2.70;;;14.80;41.30;;;12.72;45.47;101786.53;12241246;19;20024;-81
2022/05/15 03:34:27;;;;;;;3.53;2.40;;;14.80;41.20;;;12.69;45.46;101795.41;12235652;19;20401;-82
2022/05/15 03:38:29;;;;;;;2.60;2.35;;;14.80;41.30;;;12.56;45.82;101778.56;12239648;19;20029;-81
2022/05/15 03:42:31;;;;;;;3.45;2.25;;;14.70;41.30;;;12.34;45.73;101752.47;12236434;19;20007;-81
2022/05/15 03:46:33;;;;;;;4.35;2.40;;;14.80;41.30;;;12.40;45.64;101774.03;12237314;19;20062;-82
2022/05/15 03:50:35;;;;;;;3.22;2.25;;;14.70;41.30;;;12.38;45.65;101781.09;12237770;19;20484;-81
2022/05/15 03:54:37;;;;;;;3.38;2.35;;;14.50;41.30;;;12.49;45.83;101790.22;12237401;19;20023;-81
2022/05/15 03:58:40;;;;;;;2.42;2.05;;;14.70;41.50;;;12.21;45.72;101760.06;12238196;19;20119;-82
2022/05/15 04:02:43;;;;;;;2.97;2.47;;;14.30;41.30;;;12.31;45.87;101790.16;12239066;19;20010;-81
2022/05/15 04:06:45;;;;;;;3.17;2.75;;;14.60;41.50;;;12.45;45.88;101815.72;12234201;19;20015;-81
2022/05/15 04:10:47;;;;;;;4.00;2.47;;;14.60;41.60;;;12.38;45.84;101809.06;12238745;19;20027;-81
2022/05/15 04:14:49;;;;;;;2.88;2.13;;;14.40;41.60;;;12.42;45.92;101822.84;12232131;19;20039;-81
2022/05/15 04:18:51;;;;;;;4.15;2.95;;;14.50;41.70;;;12.43;45.71;101816.72;12235058;19;20018;-81
2022/05/15 04:22:53;;;;;;;3.10;2.30;;;14.40;41.70;;;12.26;46.16;101786.91;12236103;19;20074;-81
2022/05/15 04:26:55;;;;;;;3.10;2.30;;;14.60;41.80;;;12.45;46.07;101823.59;12234912;19;20007;-82
2022/05/15 04:30:57;;;;;;;4.45;2.53;;;14.60;41.80;;;12.49;46.06;101838.25;12237152;19;20013;-82
2022/05/15 04:34:58;;;;;;;3.03;2.17;;;14.60;41.80;;;12.44;46.14;101823.66;12234585;19;20103;-81
2022/05/15 04:39:03;;;;;;;3.75;2.20;;;14.60;41.90;;;12.32;46.17;101817.19;12237172;19;20023;-82
2022/05/15 04:43:10;;;;;;;4.35;2.30;;;14.40;41.90;;;12.40;46.41;101829.03;12221332;19;20123;-82
2022/05/15 04:47:13;;;;;;;3.10;2.13;;;14.60;41.90;;;12.46;46.38;101843.63;12235562;19;20014;-82
2022/05/15 04:51:15;;;;;;;4.25;1.98;;;14.60;42.10;;;12.52;46.51;101853.81;12244825;19;20483;-82
2022/05/15 04:55:16;;;;;;;3.53;2.08;;;14.60;42.10;;;12.45;46.47;101835.81;12242250;19;20026;-83
2022/05/15 04:59:18;;;;;;;2.85;1.80;;;15.00;42.50;;;12.39;46.70;101822.09;12248134;19;20052;-82
2022/05/15 05:03:20;;;;;;;3.42;2.30;;;14.70;42.70;;;12.53;46.87;101838.94;12245232;19;20037;-81
2022/05/15 05:07:22;;;;;;;2.30;1.77;;;14.70;42.80;;;12.69;46.94;101857.44;12242922;19;20232;-81
2022/05/15 05:11:24;;;;;;;2.65;1.55;;;14.70;43.00;;;12.67;46.91;101838.34;12248599;19;20053;-82
2022/05/15 05:15:25;;;;;;;1.52;1.30;;;14.80;43.30;;;12.92;47.10;101856.38;12246824;19;20031;-83
2022/05/15 05:19:27;;;;;;;1.45;1.10;;;15.10;43.50;;;13.13;47.14;101863.25;12247247;19;20011;-78
2022/05/15 05:23:29;;;;;;;1.38;0.85;;;15.10;43.50;;;13.24;47.04;101857.47;12243859;19;20007;-78
2022/05/15 05:27:30;;;;;;;3.38;0.90;;;15.20;43.50;;;13.39;47.17;101856.75;12243588;19;20089;-78
2022/05/15 05:31:32;;;;;;;1.35;0.60;;;15.30;43.50;;;13.56;47.20;101866.44;12242991;19;20018;-78
2022/05/15 05:35:35;;;;;;;1.17;1.00;;;15.40;43.50;;;13.62;47.13;101845.13;12244989;19;20014;-78
2022/05/15 05:39:37;;;;;;;2.13;1.42;;;15.60;43.40;;;14.00;47.00;101881.72;12245869;19;20014;-78
2022/05/15 05:43:39;;;;;;;2.20;0.88;;;15.80;43.60;;;14.02;47.10;101856.25;12244636;19;20018;-78
2022/05/15 05:47:41;;;;;;;1.20;0.98;;;15.90;43.60;;;14.28;47.08;101856.66;12239392;19;20011;-78
2022/05/15 05:51:43;;;;;;;2.38;0.77;;;16.10;43.60;;;14.53;47.14;101870.22;12246510;19;20098;-78
2022/05/15 05:55:44;;;;;;;1.20;1.00;;;16.10;43.50;;;14.70;46.95;101850.06;12244880;19;20014;-79
2022/05/15 05:59:47;;;;;;;1.88;0.90;;;16.40;43.40;;;15.00;46.85;101866.78;12247539;19;20504;-78
2022/05/15 06:08:09;;;;;;;1.33;0.80;;;17.10;43.10;;;15.48;46.72;101901.81;12244005;19;20015;-80
2022/05/15 06:12:15;;;;;;;1.08;0.98;;;17.20;43.00;;;15.61;46.85;101907.22;12244467;19;20409;-79
2022/05/15 06:16:18;;;;;;;1.43;1.03;;;17.20;42.90;;;15.65;46.62;101885.03;12244977;19;20502;-79
2022/05/15 06:20:19;;;;;;;1.52;0.77;;;17.50;42.70;;;15.89;46.62;101908.28;12243448;19;20014;-80
2022/05/15 06:24:21;;;;;;;1.30;0.80;;;17.70;42.70;;;15.94;46.76;101895.69;12240716;19;20031;-79
2022/05/15 06:28:23;;;;;;;2.53;1.05;;;17.80;42.50;;;16.06;46.33;101908.13;12244957;19;20020;-79
2022/05/15 06:32:26;;;;;;;1.15;0.90;;;17.80;42.20;;;16.08;46.22;101892.22;12241478;19;20042;-79
2022/05/15 06:36:27;;;;;;;1.65;0.70;;;18.00;42.10;;;16.07;46.37;101891.41;12239906;19;20082;-79
2022/05/15 06:40:30;;;;;;;4.75;1.30;;;18.10;42.00;;;15.91;46.38;101859.00;12243297;19;20079;-79
2022/05/15 06:44:32;;;;;;;1.90;0.80;;;18.20;41.80;;;16.33;46.44;101917.97;12239943;19;20010;-78
2022/05/15 06:48:35;;;;;;;2.38;0.90;;;18.30;42.00;;;16.27;46.30;101878.78;12243464;19;20027;-78
2022/05/15 06:52:38;;;;;;;1.98;0.70;;;18.20;42.00;;;16.48;46.19;101900.38;12243020;19;20468;-79
2022/05/15 07:01:00;;;;;;;1.92;0.70;;;18.50;41.60;;;16.59;46.07;101901.41;12244765;19;20460;-78
2022/05/15 07:05:04;;;;;;;0.85;0.63;;;18.60;41.50;;;16.67;46.14;101900.94;12240200;19;20006;-79
2022/05/15 07:09:06;;;;;;;1.67;0.85;;;18.70;41.60;;;16.44;46.24;101861.94;12239840;19;20035;-79
2022/05/15 07:13:08;;;;;;;2.42;0.90;;;18.70;41.30;;;16.50;45.90;101858.91;12240274;19;20015;-79
2022/05/15 07:17:10;;;;;;;2.70;0.75;;;18.80;41.30;;;16.85;46.04;101901.63;12242977;19;20010;-79
2022/05/15 07:21:12;;;;;;;1.48;0.63;;;18.80;41.00;;;17.04;45.72;101911.84;12241308;19;20010;-79
2022/05/15 07:25:13;;;;;;;3.17;1.02;;;18.90;41.00;;;17.18;45.64;101906.53;12240064;19;20019;-79
2022/05/15 07:29:16;;;;;;;0.70;0.70;;;19.00;41.10;;;17.03;45.49;101857.34;12242606;19;20022;-79
2022/05/15 07:33:22;;;;;;;2.22;1.00;;;19.00;40.90;;;17.52;45.39;101906.97;12240271;19;20089;-80
2022/05/15 07:37:24;;;;;;;1.85;0.60;;;19.30;40.90;;;17.75;45.53;101913.38;12239045;19;20015;-79
2022/05/15 07:41:26;;;;;;;1.60;0.68;;;19.40;40.70;;;17.81;45.33;101891.03;12239737;19;20013;-80
2022/05/15 07:45:28;;;;;;;0.90;0.70;;;19.60;40.70;;;17.97;45.06;101881.13;12238800;19;20011;-79
2022/05/15 07:49:31;;;;;;;2.35;0.80;;;19.70;40.60;;;18.31;45.06;101902.63;12238187;19;20468;-79
2022/05/15 07:53:33;;;;;;;3.13;0.80;;;19.90;40.40;;;18.58;44.71;101919.19;12237336;19;20015;-78
2022/05/15 07:57:35;;;;;;;0.85;0.70;;;20.20;40.40;;;18.66;44.45;101907.22;12237224;19;20025;-80
2022/05/15 08:01:37;;;;;;;2.05;0.80;;;20.40;39.90;;;18.79;44.72;101905.44;12238894;19;20015;-80
2022/05/15 08:09:58;;;;;;;1.65;0.98;;;20.70;39.40;;;19.10;44.10;101913.84;12233866;19;20503;-81
2022/05/15 08:14:01;;;;;;;1.33;0.70;;;20.80;39.40;;;19.22;44.00;101924.38;12236227;19;20465;-80
2022/05/15 08:26:45;;;;;;;1.90;0.68;;;21.20;39.00;;;19.66;43.63;101912.34;12243205;19;20419;-81
2022/05/15 08:30:46;;;;;;;1.15;0.75;;;21.40;38.80;;;19.84;42.96;101912.75;12247278;19;20029;-80
2022/05/15 08:34:48;;;;;;;3.30;0.70;;;21.50;38.40;;;19.87;42.77;101907.25;12243868;19;20350;-80
2022/05/15 08:38:50;;;;;;;1.00;0.65;;;21.70;38.20;;;20.02;42.96;101917.63;12248167;19;20459;-81
2022/05/15 08:42:56;;;;;;;1.25;0.77;;;21.80;38.00;;;20.10;42.78;101905.47;12246649;19;20808;-80
2022/05/15 08:47:18;;;;;;;1.02;0.60;;;21.80;37.90;;;20.27;42.22;101914.78;12243815;19;20015;-80
2022/05/15 08:51:20;;;;;;;1.98;0.80;;;22.00;36.90;;;20.20;42.29;101908.28;12246835;19;20007;-80
2022/05/15 08:55:40;;;;;;;1.42;0.82;;;22.00;37.30;;;20.24;42.16;101893.78;12246462;19;20035;-80
2022/05/15 08:59:55;;;;;;;0.80;0.60;;;22.20;37.50;;;20.31;42.08;101883.56;12246430;19;20043;-78
2022/05/15 09:03:58;;;;;;;1.23;0.98;;;22.20;37.60;;;20.59;42.19;101906.16;12242184;19;20034;-78
2022/05/15 09:08:35;;;;;;;3.13;0.82;;;22.30;37.40;;;20.64;41.59;101908.44;12241538;19;20068;-78
2022/05/15 09:12:46;;;;;;;1.15;0.63;;;22.50;37.10;;;20.67;41.91;101885.16;12244006;19;20376;-78
2022/05/15 09:16:58;;;;;;;1.70;0.85;;;22.60;37.20;;;20.91;41.18;101900.09;12245148;19;20023;-78
2022/05/15 09:21:11;;;;;;;2.50;0.80;;;22.70;36.30;;;20.76;41.08;101888.88;12242896;19;20090;-78
2022/05/15 09:25:21;;;;;;;1.38;0.77;;;22.60;36.40;;;21.01;41.03;101911.69;12240894;19;20025;-78
2022/05/15 09:29:28;;;;;;;1.05;0.70;;;22.80;36.50;;;20.90;41.18;101882.44;12243668;19;20090;-78
2022/05/15 09:33:44;;;;;;;0.90;0.60;;;22.90;36.40;;;20.99;40.76;101876.41;12243208;19;20019;-78
2022/05/15 09:46:40;;;;;;;2.63;0.60;;;23.00;35.90;;;21.39;40.16;101881.16;12242067;19;20366;-78
2022/05/15 09:50:49;;;;;;;1.00;0.60;;;23.10;35.60;;;21.58;40.26;101889.28;12244720;19;20011;-78
2022/05/15 09:54:51;;;;;;;0.85;0.50;;;23.20;35.40;;;21.70;40.10;101870.63;12239139;19;20014;-79
2022/05/15 09:59:08;;;;;;;0.95;0.60;;;23.40;35.70;;;21.76;39.82;101859.47;12245346;19;20015;-78
2022/05/15 10:03:36;;;;;;;2.85;0.65;;;23.50;35.50;;;22.03;39.13;101878.38;12241712;19;20042;-78
2022/05/15 10:07:44;;;;;;;1.27;0.60;;;23.70;35.40;;;22.01;39.43;101864.38;12236289;19;20081;-77
2022/05/15 10:11:48;;;;;;;2.42;0.68;;;23.80;35.10;;;21.76;39.44;101814.25;12241390;19;20018;-79
2022/05/15 10:15:54;;;;;;;1.52;1.00;;;23.80;34.70;;;22.06;39.02;101861.31;12243336;19;20517;-78
2022/05/15 10:20:04;;;;;;;;;;;23.80;34.70;;;22.24;39.55;101864.25;12244025;19;20015;-77
2022/05/15 10:24:13;;;;;;;0.57;0.57;;;23.90;35.00;;;22.33;39.05;101863.44;12243508;19;19931;-77
2022/05/15 10:29:03;;;;;;;0.93;0.60;;;24.10;34.70;;;22.49;38.95;101853.16;12242985;19;20035;-77
2022/05/15 10:33:14;;;;;;;1.65;0.73;;;24.10;34.60;;;22.67;38.77;101868.47;12243736;19;20010;-79
2022/05/15 10:37:53;;;;;;;0.63;0.52;;;24.20;34.60;;;22.41;38.19;101809.53;12245483;19;20010;-81
2022/05/15 10:42:22;;;;;;;1.35;0.70;;;24.30;33.80;;;22.64;37.89;101831.47;12243326;19;20025;-79
2022/05/15 10:46:46;;;;;;;0.98;0.63;;;24.40;34.10;;;22.77;37.98;101816.09;12239166;19;20325;-79
2022/05/15 10:51:00;;;;;;;0.60;0.60;;;24.50;33.90;;;22.52;37.90;101781.00;12240526;19;20018;-80
2022/05/15 11:00:21;;;;;;;1.85;0.52;;;24.60;33.80;;;22.96;37.53;101824.13;12236700;19;20029;-79
2022/05/15 11:04:49;;;;;;;0.47;0.47;;;24.70;33.60;;;22.90;37.39;101821.13;12238756;19;20014;-78
2022/05/15 11:09:17;;;;;;;1.15;0.70;;;24.70;32.90;;;22.83;37.13;101815.53;12216594;19;20021;-82
2022/05/15 11:13:28;;;;;;;2.30;0.68;;;24.70;33.10;;;22.91;37.23;101820.16;12224085;19;20535;-79
2022/05/15 11:17:37;;;;;;;2.40;0.70;;;24.80;33.20;;;23.03;37.07;101828.91;12220509;19;20014;-79
2022/05/15 11:22:15;;;;;;;0.30;0.30;;;24.70;33.40;;;23.23;36.69;101825.28;12228675;19;20348;-78
2022/05/15 11:26:26;;;;;;;0.35;0.35;;;24.80;33.30;;;23.42;36.74;101819.91;12226626;19;20014;-79
2022/05/15 11:30:32;;;;;;;0.73;0.40;;;25.00;33.10;;;23.21;36.21;101751.75;12224934;19;20014;-81
2022/05/15 11:35:04;;;;;;;0.30;0.30;;;25.00;32.80;;;23.71;36.23;101821.75;12222847;19;20019;-77
2022/05/15 11:39:15;;;;;;;0.88;0.63;;;25.40;33.30;;;23.70;35.91;101822.69;12223646;19;20014;-77
2022/05/15 11:43:31;;;;;;;1.15;0.57;;;25.30;31.90;;;23.57;35.73;101807.00;12224522;19;20029;-76
2022/05/15 11:47:35;;;;;;;2.05;0.57;;;25.30;31.90;;;23.43;36.07;101788.75;12222346;19;20797;-77
2022/05/15 11:51:37;;;;;;;0.70;0.50;;;25.20;32.30;;;23.64;35.75;101804.59;12221528;19;20032;-77
2022/05/15 11:55:49;;;;;;;0.93;0.47;;;25.30;32.20;;;23.67;35.35;101801.63;12223256;19;20030;-77
2022/05/15 11:59:57;;;;;;;0.75;0.40;;;25.30;31.80;;;23.70;35.08;101788.00;12224565;19;20404;-77
2022/05/15 12:04:07;;;;;;;0.98;0.60;;;25.30;31.80;;;23.68;35.45;101768.63;12221271;19;20276;-77
2022/05/15 12:08:18;;;;;;;10.88;1.00;;;25.40;32.20;;;23.89;34.57;101783.63;12219100;19;20036;-77
2022/05/15 12:12:30;;;;;;;0.47;0.47;;;25.50;31.40;;;23.91;35.26;101787.00;12220386;19;20018;-78
2022/05/15 12:16:49;;;;;;;0.98;0.50;;;25.60;32.20;;;23.93;34.89;101777.03;12224137;19;20490;-77
2022/05/15 12:20:53;;;;;;;0.55;0.55;;;25.60;32.00;;;23.92;34.51;101773.50;12216305;19;20014;-78
2022/05/15 12:24:55;;;;;;;1.00;0.60;;;25.70;31.50;;;23.75;34.70;101761.78;12218363;19;20102;-78
2022/05/15 12:29:27;;;;;;;1.00;0.50;;;25.60;31.40;;;23.67;34.57;101742.94;12224294;19;20023;-78
2022/05/15 12:33:30;;;;;;;1.65;0.60;;;25.60;31.70;;;23.84;34.67;101765.38;12221126;19;20333;-78
2022/05/15 12:37:50;;;;;;;0.65;0.65;;;25.60;31.70;;;23.89;34.38;101754.28;12220039;19;20039;-78
2022/05/15 12:41:52;;;;;;;0.45;0.45;;;25.60;31.60;;;23.96;34.65;101750.03;12222196;19;20025;-78
2022/05/15 12:45:54;;;;;;;0.88;0.50;;;25.60;31.40;;;23.98;34.52;101737.38;12220092;19;20070;-78
2022/05/15 12:50:18;;;;;;;0.40;0.40;;;25.70;31.50;;;24.18;34.18;101748.81;12221473;19;20023;-78
2022/05/15 12:54:29;;;;;;;1.02;0.52;;;25.80;31.30;;;24.16;34.01;101732.09;12219502;19;20021;-78
2022/05/15 12:58:34;;;;;;;1.50;0.95;;;25.80;31.40;;;24.31;34.02;101745.81;12204253;19;20366;-78
2022/05/15 13:02:37;;;;;;;0.40;0.40;;;25.90;31.40;;;24.19;34.11;101705.94;12221397;19;20082;-78
2022/05/15 13:06:48;;;;;;;1.48;0.70;;;25.90;31.30;;;24.33;33.61;101733.97;12224594;19;20015;-79
2022/05/15 13:11:03;;;;;;;0.60;0.50;;;26.00;30.90;;;24.29;33.27;101721.91;12231538;19;20710;-78
2022/05/15 13:15:05;;;;;;;2.38;0.60;;;26.00;30.90;;;24.31;33.76;101719.09;12228862;19;20498;-78
2022/05/15 13:19:11;;;;;;;0.57;0.57;;;26.00;31.00;;;24.39;33.80;101728.03;12232900;19;20129;-78
2022/05/15 13:23:13;;;;;;;0.40;0.40;;;26.10;31.30;;;24.51;33.40;101726.84;12230821;19;20022;-78
2022/05/15 13:27:16;;;;;;;1.05;0.57;;;26.10;30.90;;;24.53;33.56;101720.53;12227607;19;20867;-78
2022/05/15 13:31:17;;;;;;;19.45;2.08;;;26.20;31.10;;;24.43;33.08;101717.88;12230139;19;20043;-78
2022/05/15 13:35:19;;;;;;;0.80;0.60;;;26.00;30.20;;;24.23;33.00;101712.66;12226616;19;20018;-79
2022/05/15 13:44:15;;;;;;;0.93;0.60;;;25.90;30.70;;;24.50;32.98;101711.00;12231136;19;20011;-77
2022/05/15 13:48:17;;;;;;;1.17;0.52;;;26.00;31.00;;;24.59;33.01;101709.22;12220633;19;20018;-77
2022/05/15 13:52:37;;;;;;;0.82;0.47;;;26.10;30.60;;;24.63;32.94;101697.25;12226934;19;20018;-77
2022/05/15 13:56:40;;;;;;;0.63;0.55;;;26.20;30.80;;;24.68;32.90;101700.28;12232753;19;20073;-77
2022/05/15 14:00:42;;;;;;;1.05;0.50;;;26.30;30.20;;;24.48;32.29;101676.41;12232025;19;20007;-78
2022/05/15 14:04:54;;;;;;;0.82;0.60;;;26.20;30.40;;;24.58;32.77;101692.38;12228272;19;20011;-78
2022/05/15 14:09:14;;;;;;;0.57;0.57;;;26.30;30.50;;;24.69;32.28;101684.13;12228219;19;20018;-78
2022/05/15 14:13:16;;;;;;;1.20;0.60;;;26.30;30.60;;;24.70;32.86;101672.44;12218564;19;20082;-78
2022/05/15 14:17:48;;;;;;;1.10;0.43;;;26.40;30.90;;;24.82;32.69;101685.56;12222510;19;20019;-78
2022/05/15 14:21:59;;;;;;;0.50;0.50;;;26.40;30.60;;;24.87;32.18;101688.59;12230444;19;20444;-78
2022/05/15 14:26:00;;;;;;;0.73;0.52;;;26.40;30.50;;;24.84;32.41;101671.03;12227413;19;20038;-78
2022/05/15 14:30:04;;;;;;;0.43;0.43;;;26.50;30.50;;;24.89;31.99;101667.91;12216485;19;20019;-78
2022/05/15 14:34:06;;;;;;;0.50;0.50;;;26.60;30.60;;;24.90;32.09;101656.25;12217958;19;20022;-78
2022/05/15 14:38:08;;;;;;;0.82;0.50;;;26.50;30.60;;;25.04;32.38;101673.53;12222866;19;20015;-78
2022/05/15 14:42:10;;;;;;;0.85;0.47;;;26.60;30.40;;;24.98;32.02;101669.66;12223017;19;20011;-78
2022/05/15 14:46:25;;;;;;;1.10;0.60;;;26.60;30.20;;;24.95;31.85;101656.59;12218549;19;20019;-78
2022/05/15 14:50:29;;;;;;;0.50;0.50;;;26.60;30.40;;;25.06;31.92;101663.50;12223786;19;20026;-78
2022/05/15 14:54:32;;;;;;;0.83;0.60;;;26.70;30.50;;;25.00;32.31;101642.75;12220474;19;20110;-78
2022/05/15 14:58:37;;;;;;;0.60;0.60;;;26.70;30.40;;;25.07;32.09;101643.81;12220312;19;20014;-78
2022/05/15 15:02:39;;;;;;;0.98;0.45;;;26.70;30.30;;;25.20;31.70;101662.16;12222594;19;20014;-78
2022/05/15 15:06:42;;;;;;;1.45;0.80;;;26.70;30.20;;;25.09;31.43;101636.50;12223237;19;20022;-78
2022/05/15 15:10:44;;;;;;;0.65;0.50;;;26.60;30.00;;;25.08;31.49;101634.78;12222538;19;20026;-79
2022/05/15 15:14:47;;;;;;;0.40;0.40;;;26.80;30.20;;;25.19;31.97;101636.41;12222657;19;20097;-78
2022/05/15 15:18:50;;;;;;;1.25;0.50;;;26.80;30.30;;;24.91;31.36;101581.25;12220660;19;20019;-78
2022/05/15 15:22:52;;;;;;;1.05;0.55;;;26.80;30.20;;;25.31;31.46;101640.50;12222935;19;20563;-78
2022/05/15 15:26:54;;;;;;;0.80;0.80;;;26.80;30.40;;;25.00;31.11;101602.66;12218342;19;20405;-78
2022/05/15 15:30:55;;;;;;;0.45;0.45;;;26.80;29.80;;;25.06;31.34;101618.06;12222375;19;20025;-78
2022/05/15 15:34:56;;;;;;;2.97;0.70;;;26.80;30.40;;;25.09;31.08;101625.78;12218886;19;20019;-78
2022/05/15 15:38:59;;;;;;;0.50;0.50;;;26.80;30.00;;;25.01;31.24;101621.22;12219576;19;20026;-78
2022/05/15 15:43:00;;;;;;;0.60;0.47;;;26.80;29.90;;;24.93;31.02;101621.19;12220651;19;20376;-78
2022/05/15 15:47:01;;;;;;;0.98;0.55;;;26.60;29.80;;;24.89;31.35;101627.81;12216500;19;20022;-78
2022/05/15 15:51:29;;;;;;;0.73;0.57;;;26.60;29.80;;;24.85;31.08;101610.44;12224635;19;20106;-79
2022/05/15 15:55:33;;;;;;;0.52;0.50;;;26.50;29.90;;;24.88;31.22;101621.66;12221035;19;20074;-78
2022/05/15 15:59:34;;;;;;;2.13;0.60;;;26.50;30.00;;;24.85;31.15;101623.81;12220147;19;20043;-78
2022/05/15 16:03:36;;;;;;;0.50;0.50;;;26.50;30.00;;;24.86;31.00;101612.94;12218572;19;20020;-78
2022/05/15 16:07:37;;;;;;;1.95;0.80;;;26.40;29.90;;;24.84;30.99;101603.41;12216674;19;20010;-79
2022/05/15 16:11:43;;;;;;;0.60;0.55;;;26.50;30.00;;;24.82;31.04;101589.38;12221780;19;20463;-78
2022/05/15 16:15:45;;;;;;;1.63;0.80;;;26.50;29.90;;;24.54;30.95;101562.78;12222567;19;20404;-79
2022/05/15 16:19:47;;;;;;;1.35;1.00;;;26.40;29.70;;;24.59;30.94;101581.84;12204193;19;20078;-78
2022/05/15 16:23:50;;;;;;;1.20;0.82;;;26.40;29.80;;;24.62;30.84;101584.22;12217219;19;20007;-79
2022/05/15 16:27:52;;;;;;;0.70;0.70;;;26.30;29.80;;;24.71;31.05;101588.63;12213582;19;20513;-79
2022/05/15 16:31:54;;;;;;;3.92;0.82;;;26.30;29.90;;;24.64;30.99;101574.22;12218795;19;20052;-79
2022/05/15 16:35:55;;;;;;;1.92;0.50;;;26.30;30.00;;;24.65;31.08;101578.56;12218228;19;20043;-78
2022/05/15 16:39:57;;;;;;;0.75;0.63;;;26.20;29.90;;;24.48;31.06;101552.72;12222935;19;20077;-78
2022/05/15 16:43:59;;;;;;;0.85;0.80;;;26.50;29.90;;;24.62;30.56;101578.88;12227458;19;20073;-78
2022/05/15 16:48:00;;;;;;;0.75;0.70;;;26.20;29.80;;;24.39;30.69;101553.66;12221752;19;20015;-78
2022/05/15 16:52:03;;;;;;;2.70;0.55;;;26.20;29.90;;;24.54;30.68;101586.00;12224906;19;20113;-79
2022/05/15 16:56:05;;;;;;;0.75;0.60;;;26.10;29.90;;;24.46;30.92;101584.09;12228847;19;20617;-78
2022/05/15 17:00:12;;;;;;;1.75;0.60;;;26.10;29.80;;;24.34;30.83;101579.97;12227674;19;20053;-78
2022/05/15 17:04:14;;;;;;;1.10;0.77;;;26.10;30.00;;;24.34;30.70;101586.13;12225624;19;20010;-78
2022/05/15 17:08:16;;;;;;;0.65;0.50;;;26.00;30.00;;;24.32;30.67;101587.28;12224239;19;20085;-78
2022/05/15 17:12:17;;;;;;;1.00;0.50;;;25.90;30.00;;;24.25;31.05;101585.22;12226192;19;20039;-79
2022/05/15 17:16:19;;;;;;;4.05;0.50;;;25.90;30.00;;;24.18;31.01;101586.81;12228168;19;20029;-78
2022/05/15 17:20:21;;;;;;;1.02;0.63;;;25.70;29.90;;;23.91;31.10;101547.72;12227596;19;20341;-79
2022/05/15 17:24:29;;;;;;;0.98;0.77;;;25.80;30.00;;;24.04;31.37;101590.88;12225478;19;20413;-78
2022/05/15 17:37:10;;;;;;;0.55;0.55;;;25.60;30.00;;;23.87;31.45;101583.66;12225612;19;20011;-79
2022/05/15 17:41:12;;;;;;;1.55;0.60;;;25.50;30.40;;;23.78;31.46;101574.75;12224264;19;20014;-79
2022/05/15 17:45:19;;;;;;;2.25;0.70;;;25.50;30.50;;;23.63;31.46;101550.41;12219943;19;20625;-78